createdAt,value
2023-01-28T00:01:18.648Z,2.97
2023-01-28T00:03:45.231Z,2.92
2023-01-28T00:06:13.639Z,2.87
2023-01-28T00:08:42.316Z,2.79
2023-01-28T00:11:11.768Z,2.89
2023-01-28T00:13:39.018Z,2.66
2023-01-28T00:16:08.406Z,2.90
2023-01-28T00:18:35.292Z,2.89
2023-01-28T00:21:03.820Z,2.92
2023-01-28T00:23:32.989Z,2.89
2023-01-28T00:26:02.515Z,2.90
2023-01-28T00:28:29.443Z,2.85
2023-01-28T00:30:56.753Z,2.85
2023-01-28T00:33:23.730Z,2.89
2023-01-28T00:35:57.913Z,2.96
2023-01-28T00:38:24.561Z,2.59
2023-01-28T00:40:51.209Z,2.62
2023-01-28T00:43:19.587Z,2.89
2023-01-28T00:45:48.490Z,2.97
2023-01-28T00:48:16.522Z,2.72
2023-01-28T00:50:44.505Z,2.90
2023-01-28T00:53:11.117Z,2.89
2023-01-28T00:55:37.622Z,2.80
2023-01-28T00:58:04.217Z,2.94
2023-01-28T01:00:32.104Z,2.84
2023-01-28T01:02:59.711Z,2.91
2023-01-28T01:05:26.342Z,2.95
2023-01-28T01:07:52.981Z,2.69
2023-01-28T01:10:20.087Z,2.93
2023-01-28T01:12:46.894Z,2.95
2023-01-28T01:15:14.964Z,2.85
2023-01-28T01:17:44.769Z,2.97
2023-01-28T01:20:14.299Z,2.92
2023-01-28T01:22:41.046Z,2.77
2023-01-28T01:25:08.646Z,2.91
2023-01-28T01:27:35.541Z,2.90
2023-01-28T01:30:02.321Z,2.56
2023-01-28T01:32:30.570Z,2.76
2023-01-28T01:34:58.568Z,2.87
2023-01-28T01:37:25.791Z,2.83
2023-01-28T01:39:52.387Z,2.49
2023-01-28T01:42:19.361Z,2.86
2023-01-28T01:45:01.221Z,2.61
2023-01-28T01:47:36.611Z,2.76
2023-01-28T01:50:11.914Z,2.52
2023-01-28T01:52:40.479Z,2.68
2023-01-28T01:55:12.771Z,2.68
2023-01-28T01:57:40.525Z,2.47
2023-01-28T02:00:09.605Z,2.62
2023-01-28T02:02:47.196Z,2.53
2023-01-28T02:05:19.684Z,2.53
2023-01-28T02:07:48.365Z,2.53
2023-01-28T02:10:18.294Z,2.52
2023-01-28T02:12:50.237Z,2.45
2023-01-28T02:15:18.858Z,2.41
2023-01-28T02:17:46.482Z,2.38
2023-01-28T02:20:21.700Z,2.25
2023-01-28T02:23:26.942Z,2.32
2023-01-28T02:26:31.054Z,2.31
2023-01-28T02:29:10.516Z,2.08
2023-01-28T02:31:42.379Z,2.18
2023-01-28T02:34:17.266Z,2.24
2023-01-28T02:36:51.256Z,2.23
2023-01-28T02:39:23.175Z,2.19
2023-01-28T02:41:53.994Z,2.10
2023-01-28T02:44:22.559Z,1.89
2023-01-28T02:46:52.105Z,2.07
2023-01-28T02:49:23.217Z,2.01
2023-01-28T02:51:57.209Z,1.91
2023-01-28T02:54:35.762Z,1.84
2023-01-28T02:57:12.874Z,1.56
2023-01-28T02:59:45.668Z,1.70
2023-01-28T03:02:20.192Z,1.60
2023-01-28T03:04:52.313Z,1.55
2023-01-28T03:07:20.187Z,1.38
2023-01-28T03:09:49.612Z,1.33
2023-01-28T03:12:21.728Z,1.08
2023-01-28T03:14:53.550Z,0.89
2023-01-28T03:17:26.764Z,0.98
2023-01-28T03:19:54.511Z,0.94
2023-01-28T03:22:22.287Z,0.91
2023-01-28T03:24:52.779Z,0.89
2023-01-28T03:27:29.370Z,0.83
2023-01-28T03:30:09.144Z,0.88
2023-01-28T03:32:38.019Z,0.79
2023-01-28T03:35:08.541Z,0.77
2023-01-28T03:37:35.623Z,0.75
2023-01-28T03:40:12.311Z,0.70
2023-01-28T03:42:38.971Z,0.64
2023-01-28T03:45:14.123Z,0.35
2023-01-28T03:47:41.035Z,0.31
2023-01-28T03:50:10.769Z,0.50
2023-01-28T03:52:50.313Z,0.45
2023-01-28T03:55:29.718Z,0.26
2023-01-28T03:57:56.366Z,0.21
2023-01-28T04:00:24.872Z,0.33
2023-01-28T04:02:51.801Z,0.25
2023-01-28T04:05:20.339Z,0.26
2023-01-28T04:07:48.692Z,0.21
2023-01-28T04:10:20.604Z,-0.14
2023-01-28T04:12:54.899Z,0.12
2023-01-28T04:15:24.925Z,0.06
2023-01-28T04:17:51.458Z,0.02
2023-01-28T04:20:29.626Z,-0.06
2023-01-28T04:22:59.132Z,-0.09
2023-01-28T04:25:25.793Z,-0.19
2023-01-28T04:27:52.710Z,-0.23
2023-01-28T04:30:26.697Z,-0.34
2023-01-28T04:33:23.327Z,-0.33
2023-01-28T04:36:22.436Z,-0.36
2023-01-28T04:39:05.308Z,-0.35
2023-01-28T04:41:46.008Z,-0.47
2023-01-28T04:44:21.689Z,-0.52
2023-01-28T04:47:03.485Z,-0.61
2023-01-28T04:49:54.960Z,-0.86
2023-01-28T04:52:44.655Z,-0.62
2023-01-28T04:55:18.880Z,-0.72
2023-01-28T04:57:46.846Z,-0.80
2023-01-28T05:00:14.076Z,-0.83
2023-01-28T05:02:42.038Z,-0.83
2023-01-28T05:05:09.335Z,-0.88
2023-01-28T05:07:50.081Z,-0.92
2023-01-28T05:10:16.743Z,-1.00
2023-01-28T05:12:43.979Z,-1.04
2023-01-28T05:15:11.512Z,-1.09
2023-01-28T05:17:38.130Z,-1.14
2023-01-28T05:20:07.614Z,-1.18
2023-01-28T05:22:34.298Z,-1.24
2023-01-28T05:25:15.806Z,-1.28
2023-01-28T05:27:42.688Z,-1.31
2023-01-28T05:30:10.730Z,-1.30
2023-01-28T05:32:37.408Z,-1.41
2023-01-28T05:35:06.270Z,-1.33
2023-01-28T05:37:33.879Z,-1.36
2023-01-28T05:40:00.935Z,-1.51
2023-01-28T05:42:28.406Z,-1.46
2023-01-28T05:45:06.794Z,-1.41
2023-01-28T05:47:38.586Z,-1.43
2023-01-28T05:50:20.833Z,-1.65
2023-01-28T05:53:08.116Z,-1.45
2023-01-28T05:55:36.106Z,-1.43
2023-01-28T05:58:02.949Z,-1.41
2023-01-28T06:00:29.679Z,-1.40
2023-01-28T06:02:56.291Z,-1.36
2023-01-28T06:05:25.138Z,-1.33
2023-01-28T06:07:52.306Z,-1.29
2023-01-28T06:10:19.954Z,-1.21
2023-01-28T06:12:47.212Z,-1.19
2023-01-28T06:15:32.854Z,-1.19
2023-01-28T06:18:12.444Z,-1.19
2023-01-28T06:20:40.457Z,-1.16
2023-01-28T06:23:07.169Z,-1.09
2023-01-28T06:25:33.860Z,-1.05
2023-01-28T06:28:06.933Z,-1.02
2023-01-28T06:30:33.680Z,-1.37
2023-01-28T06:33:00.278Z,-1.30
2023-01-28T06:35:27.376Z,-0.96
2023-01-28T06:37:55.474Z,-0.93
2023-01-28T06:40:22.078Z,-0.91
2023-01-28T06:42:48.925Z,-1.09
2023-01-28T06:45:15.655Z,-0.84
2023-01-28T06:47:42.182Z,-0.80
2023-01-28T06:50:10.269Z,-0.75
2023-01-28T06:52:37.024Z,-0.73
2023-01-28T06:55:05.720Z,-0.68
2023-01-28T06:57:32.468Z,-0.66
2023-01-28T06:59:59.157Z,-0.64
2023-01-28T07:02:27.683Z,-0.74
2023-01-28T07:04:54.487Z,-0.74
2023-01-28T07:07:21.124Z,-0.54
2023-01-28T07:09:47.843Z,-0.50
2023-01-28T07:12:15.791Z,-0.48
2023-01-28T07:14:42.539Z,-0.47
2023-01-28T07:17:09.253Z,-0.46
2023-01-28T07:19:36.299Z,-0.77
2023-01-28T07:22:02.924Z,-0.42
2023-01-28T07:24:30.014Z,-0.76
2023-01-28T07:26:56.740Z,-0.35
2023-01-28T07:29:24.732Z,-0.34
2023-01-28T07:31:51.446Z,-0.28
2023-01-28T07:34:18.182Z,-0.38
2023-01-28T07:36:44.726Z,-0.26
2023-01-28T07:39:11.315Z,-0.21
2023-01-28T07:41:38.107Z,-0.16
2023-01-28T07:44:06.215Z,-0.13
2023-01-28T07:46:34.131Z,-0.13
2023-01-28T07:49:00.766Z,-0.10
2023-01-28T07:51:27.679Z,-0.11
2023-01-28T07:53:54.301Z,-0.05
2023-01-28T07:56:20.885Z,-0.04
2023-01-28T07:58:49.676Z,0.00
2023-01-28T08:01:16.268Z,0.02
2023-01-28T08:03:44.283Z,0.04
2023-01-28T08:06:10.796Z,0.07
2023-01-28T08:08:37.360Z,0.09
2023-01-28T08:11:07.358Z,-0.43
2023-01-28T08:13:34.056Z,0.16
2023-01-28T08:16:00.642Z,0.19
2023-01-28T08:18:27.309Z,-0.16
2023-01-28T08:20:56.938Z,0.15
2023-01-28T08:23:24.509Z,0.28
2023-01-28T08:25:51.219Z,0.28
2023-01-28T08:28:18.236Z,0.12
2023-01-28T08:30:45.568Z,0.34
2023-01-28T08:33:14.007Z,0.39
2023-01-28T08:35:41.043Z,0.44
2023-01-28T08:38:11.840Z,0.48
2023-01-28T08:40:38.606Z,0.21
2023-01-28T08:43:06.493Z,0.58
2023-01-28T08:45:33.203Z,0.63
2023-01-28T08:48:01.333Z,0.65
2023-01-28T08:50:29.745Z,0.56
2023-01-28T08:52:58.132Z,0.83
2023-01-28T08:55:27.726Z,0.92
2023-01-28T08:57:56.003Z,0.90
2023-01-28T09:00:24.423Z,0.90
2023-01-28T09:02:51.982Z,0.94
2023-01-28T09:05:19.137Z,0.94
2023-01-28T09:07:45.728Z,0.96
2023-01-28T09:10:13.122Z,0.69
2023-01-28T09:12:41.427Z,1.01
2023-01-28T09:15:11.381Z,1.07
2023-01-28T09:17:38.339Z,1.14
2023-01-28T09:20:06.542Z,1.16
2023-01-28T09:22:33.201Z,1.08
2023-01-28T09:24:59.973Z,1.02
2023-01-28T09:27:26.772Z,1.11
2023-01-28T09:29:54.815Z,1.30
2023-01-28T09:32:21.459Z,0.87
2023-01-28T09:34:48.022Z,1.31
2023-01-28T09:37:14.644Z,1.39
2023-01-28T09:39:41.536Z,0.83
2023-01-28T09:42:27.847Z,1.45
2023-01-28T09:45:05.464Z,1.48
2023-01-28T09:47:35.581Z,1.47
2023-01-28T09:50:07.284Z,1.46
2023-01-28T09:52:35.229Z,1.42
2023-01-28T09:55:04.873Z,1.47
2023-01-28T09:57:38.349Z,1.51
2023-01-28T10:00:15.730Z,1.62
2023-01-28T10:02:58.400Z,1.66
2023-01-28T10:05:33.963Z,1.60
2023-01-28T10:08:13.389Z,1.74
2023-01-28T10:10:44.409Z,1.60
2023-01-28T10:13:29.339Z,1.76
2023-01-28T10:16:19.098Z,1.79
2023-01-28T10:18:50.736Z,1.83
2023-01-28T10:21:24.523Z,1.85
2023-01-28T10:23:57.789Z,1.87
2023-01-28T10:26:27.730Z,1.93
2023-01-28T10:28:57.578Z,1.96
2023-01-28T10:31:32.126Z,1.89
2023-01-28T10:33:59.551Z,2.08
2023-01-28T10:36:26.606Z,2.11
2023-01-28T10:38:53.238Z,2.04
2023-01-28T10:41:22.191Z,1.97
2023-01-28T10:43:50.183Z,2.06
2023-01-28T10:46:21.764Z,2.15
2023-01-28T10:48:56.461Z,2.17
2023-01-28T10:51:33.958Z,2.04
2023-01-28T10:54:00.838Z,2.13
2023-01-28T10:56:29.931Z,2.22
2023-01-28T10:59:00.462Z,2.22
2023-01-28T11:01:39.498Z,2.24
2023-01-28T11:04:17.132Z,2.38
2023-01-28T11:06:53.042Z,2.26
2023-01-28T11:09:25.008Z,2.09
2023-01-28T11:11:51.423Z,2.26
2023-01-28T11:14:23.801Z,2.29
2023-01-28T11:16:51.987Z,2.16
2023-01-28T11:21:55.193Z,2.23
2023-01-28T11:24:26.012Z,2.37
2023-01-28T11:26:56.177Z,2.44
2023-01-28T11:29:26.760Z,2.51
2023-01-28T11:31:53.857Z,2.56
2023-01-28T11:34:27.231Z,2.57
2023-01-28T11:37:01.002Z,2.71
2023-01-28T11:39:27.761Z,2.76
2023-01-28T11:41:54.466Z,2.74
2023-01-28T11:44:23.868Z,2.73
2023-01-28T11:47:05.115Z,2.72
2023-01-28T11:49:49.490Z,2.68
2023-01-28T11:52:22.993Z,2.74
2023-01-28T11:55:01.326Z,2.70
2023-01-28T11:57:37.179Z,2.75
2023-01-28T12:00:28.331Z,2.64
2023-01-28T12:03:09.292Z,2.66
2023-01-28T12:05:49.246Z,2.67
2023-01-28T12:08:22.509Z,2.62
2023-01-28T12:11:03.756Z,2.44
2023-01-28T12:13:46.442Z,2.55
2023-01-28T12:16:30.535Z,2.54
2023-01-28T12:19:22.806Z,2.52
2023-01-28T12:22:01.036Z,2.48
2023-01-28T12:24:41.766Z,2.56
2023-01-28T12:27:23.957Z,2.64
2023-01-28T12:30:01.217Z,2.53
2023-01-28T12:32:41.378Z,2.19
2023-01-28T12:35:35.308Z,2.51
2023-01-28T12:38:14.692Z,2.46
2023-01-28T12:40:55.259Z,2.49
2023-01-28T12:43:28.849Z,2.37
2023-01-28T12:46:00.936Z,2.37
2023-01-28T12:48:34.088Z,2.44
2023-01-28T12:51:08.139Z,2.49
2023-01-28T12:53:43.531Z,2.45
2023-01-28T12:56:15.441Z,2.62
2023-01-28T12:58:48.878Z,2.53
2023-01-28T13:01:21.787Z,2.61
2023-01-28T13:03:54.881Z,2.76
2023-01-28T13:06:27.807Z,2.72
2023-01-28T13:09:01.011Z,2.79
2023-01-28T13:11:34.161Z,2.71
2023-01-28T13:14:02.012Z,2.71
2023-01-28T13:16:37.294Z,2.77
2023-01-28T13:19:07.922Z,2.74
2023-01-28T13:21:47.657Z,2.68
2023-01-28T13:24:32.340Z,2.76
2023-01-28T13:27:09.811Z,2.70
2023-01-28T13:29:36.505Z,1.98
2023-01-28T13:32:24.294Z,2.74
2023-01-28T13:34:58.331Z,2.73
2023-01-28T13:37:30.660Z,2.79
2023-01-28T13:40:06.077Z,2.88
2023-01-28T13:42:33.097Z,2.89
2023-01-28T13:45:20.836Z,2.87
2023-01-28T13:47:51.302Z,2.90
2023-01-28T13:50:21.528Z,2.67
2023-01-28T13:52:55.039Z,2.83
2023-01-28T13:55:42.656Z,2.81
2023-01-28T13:58:31.022Z,2.82
2023-01-28T14:01:24.208Z,2.91
2023-01-28T14:04:26.751Z,2.97
2023-01-28T14:07:08.465Z,2.79
2023-01-28T14:09:53.965Z,2.91
2023-01-28T14:12:58.037Z,3.01
2023-01-28T14:15:56.130Z,3.18
2023-01-28T14:18:27.721Z,3.29
2023-01-28T14:20:56.374Z,3.31
2023-01-28T14:23:24.249Z,3.38
2023-01-28T14:26:04.971Z,3.39
2023-01-28T14:28:43.499Z,3.35
2023-01-28T14:31:15.644Z,3.21
2023-01-28T14:33:43.484Z,3.19
2023-01-28T14:36:11.650Z,3.16
2023-01-28T14:38:41.167Z,3.15
2023-01-28T14:41:09.414Z,3.17
2023-01-28T14:43:38.681Z,3.07
2023-01-28T14:46:16.646Z,3.07
2023-01-28T14:48:51.638Z,3.13
2023-01-28T14:51:37.550Z,3.03
2023-01-28T14:54:37.391Z,3.12
2023-01-28T14:57:18.228Z,3.12
2023-01-28T14:59:49.390Z,3.12
2023-01-28T15:02:20.037Z,3.09
2023-01-28T15:04:46.907Z,3.00
2023-01-28T15:07:18.889Z,2.90
2023-01-28T15:09:45.376Z,2.97
2023-01-28T15:12:14.293Z,2.95
2023-01-28T15:14:41.739Z,2.87
2023-01-28T15:17:23.186Z,2.82
2023-01-28T15:19:50.193Z,2.84
2023-01-28T15:22:17.116Z,2.53
2023-01-28T15:24:43.824Z,2.70
2023-01-28T15:27:17.336Z,2.59
2023-01-28T15:29:51.783Z,2.52
2023-01-28T15:32:23.994Z,2.28
2023-01-28T15:34:50.614Z,2.39
2023-01-28T15:37:19.140Z,2.07
2023-01-28T15:39:48.632Z,2.21
2023-01-28T15:42:20.614Z,1.85
2023-01-28T15:44:48.004Z,1.96
2023-01-28T15:47:17.731Z,1.65
2023-01-28T15:49:48.997Z,1.76
2023-01-28T15:52:16.055Z,1.67
2023-01-28T15:54:45.705Z,1.60
2023-01-28T15:57:19.430Z,1.51
2023-01-28T15:59:46.377Z,1.43
2023-01-28T16:02:18.566Z,1.25
2023-01-28T16:04:57.503Z,1.18
2023-01-28T16:07:24.774Z,0.77
2023-01-28T16:09:52.587Z,0.98
2023-01-28T16:12:19.858Z,0.91
2023-01-28T16:14:51.189Z,0.81
2023-01-28T16:17:21.222Z,0.43
2023-01-28T16:19:50.188Z,0.38
2023-01-28T16:22:27.082Z,0.60
2023-01-28T16:24:54.485Z,0.38
2023-01-28T16:27:22.637Z,0.43
2023-01-28T16:29:49.362Z,0.30
2023-01-28T16:32:28.674Z,0.17
2023-01-28T16:34:55.604Z,-0.11
2023-01-28T16:37:23.490Z,0.06
2023-01-28T16:39:50.124Z,0.04
2023-01-28T16:42:16.986Z,-0.02
2023-01-28T16:44:43.619Z,-0.14
2023-01-28T16:47:10.348Z,-0.22
2023-01-28T16:49:37.082Z,-0.31
2023-01-28T16:52:04.876Z,-0.33
2023-01-28T16:54:33.952Z,-0.41
2023-01-28T16:57:00.794Z,-0.48
2023-01-28T16:59:27.468Z,-0.57
2023-01-28T17:01:54.022Z,-0.63
2023-01-28T17:04:20.672Z,-0.75
2023-01-28T17:06:47.408Z,-0.86
2023-01-28T17:09:15.073Z,-0.89
2023-01-28T17:11:43.214Z,-0.88
2023-01-28T17:14:10.348Z,-0.93
2023-01-28T17:16:37.158Z,-0.90
2023-01-28T17:19:04.072Z,-0.91
2023-01-28T17:21:30.616Z,-0.88
2023-01-28T17:23:59.047Z,-0.83
2023-01-28T17:26:26.301Z,-0.80
2023-01-28T17:28:54.384Z,-0.80
2023-01-28T17:31:21.944Z,-0.77
2023-01-28T17:33:53.692Z,-0.70
2023-01-28T17:36:20.560Z,-1.09
2023-01-28T17:38:47.137Z,-0.90
2023-01-28T17:41:14.615Z,-0.83
2023-01-28T17:43:41.201Z,-0.71
2023-01-28T17:46:13.756Z,-1.05
2023-01-28T17:48:40.752Z,-0.78
2023-01-28T17:51:07.373Z,-0.82
2023-01-28T17:53:34.130Z,-0.87
2023-01-28T17:56:00.837Z,-1.09
2023-01-28T17:58:27.500Z,-0.99
2023-01-28T18:00:54.143Z,-1.28
2023-01-28T18:03:22.098Z,-1.07
2023-01-28T18:05:57.336Z,-1.12
2023-01-28T18:08:24.212Z,-1.13
2023-01-28T18:10:50.857Z,-1.12
2023-01-28T18:13:17.496Z,-1.22
2023-01-28T18:15:44.109Z,-1.36
2023-01-28T18:18:10.957Z,-1.28
2023-01-28T18:20:38.850Z,-1.35
2023-01-28T18:23:05.462Z,-1.34
2023-01-28T18:25:32.016Z,-1.42
2023-01-28T18:27:58.631Z,-1.50
2023-01-28T18:30:25.222Z,-1.55
2023-01-28T18:32:52.128Z,-1.56
2023-01-28T18:35:19.070Z,-1.54
2023-01-28T18:37:47.257Z,-1.59
2023-01-28T18:40:13.944Z,-1.81
2023-01-28T18:42:40.547Z,-1.85
2023-01-28T18:45:07.968Z,-1.77
2023-01-28T18:47:34.813Z,-1.78
2023-01-28T18:50:01.332Z,-1.81
2023-01-28T18:52:27.924Z,-1.81
2023-01-28T18:54:56.020Z,-1.86
2023-01-28T18:57:22.655Z,-1.91
2023-01-28T18:59:49.186Z,-1.95
2023-01-28T19:02:15.823Z,-1.99
2023-01-28T19:04:42.331Z,-2.03
2023-01-28T19:07:11.403Z,-2.07
2023-01-28T19:09:38.233Z,-2.10
2023-01-28T19:12:06.351Z,-2.14
2023-01-28T19:14:32.933Z,-2.21
2023-01-28T19:16:59.551Z,-2.26
2023-01-28T19:19:26.149Z,-2.55
2023-01-28T19:21:52.908Z,-2.24
2023-01-28T19:24:19.563Z,-2.26
2023-01-28T19:26:46.207Z,-2.27
2023-01-28T19:29:15.886Z,-2.31
2023-01-28T19:31:45.680Z,-2.38
2023-01-28T19:34:12.469Z,-2.42
2023-01-28T19:36:38.999Z,-2.45
2023-01-28T19:39:07.340Z,-2.49
2023-01-28T19:41:34.343Z,-2.65
2023-01-28T19:44:00.972Z,-2.56
2023-01-28T19:46:29.076Z,-2.60
2023-01-28T19:48:55.858Z,-2.62
2023-01-28T19:51:23.286Z,-2.66
2023-01-28T19:53:51.336Z,-2.67
2023-01-28T19:56:18.962Z,-2.67
2023-01-28T19:58:46.446Z,-2.66
2023-01-28T20:01:14.833Z,-2.93
2023-01-28T20:03:43.169Z,-2.73
2023-01-28T20:06:13.119Z,-3.01
2023-01-28T20:08:39.709Z,-2.74
2023-01-28T20:11:10.284Z,-3.02
2023-01-28T20:13:38.689Z,-3.44
2023-01-28T20:16:08.108Z,-2.81
2023-01-28T20:18:35.449Z,-2.84
2023-01-28T20:21:03.516Z,-2.90
2023-01-28T20:23:30.135Z,-2.93
2023-01-28T20:25:57.346Z,-3.12
2023-01-28T20:28:25.244Z,-2.98
2023-01-28T20:30:52.998Z,-3.06
2023-01-28T20:33:20.204Z,-3.01
2023-01-28T20:35:48.999Z,-3.03
2023-01-28T20:38:25.303Z,-3.02
2023-01-28T20:41:00.185Z,-3.05
2023-01-28T20:43:28.866Z,-3.11
2023-01-28T20:46:06.603Z,-3.25
2023-01-28T20:48:41.590Z,-3.21
2023-01-28T20:54:23.978Z,-3.30
2023-01-28T20:56:55.717Z,-3.35
2023-01-28T20:59:24.867Z,-3.69
2023-01-28T21:02:09.073Z,-3.31
2023-01-28T21:04:45.943Z,-3.44
2023-01-28T21:07:16.057Z,-3.35
2023-01-28T21:09:44.254Z,-3.69
2023-01-28T21:12:11.262Z,-3.37
2023-01-28T21:14:44.714Z,-3.39
2023-01-28T21:17:18.105Z,-3.43
2023-01-28T21:20:32.892Z,-3.43
2023-01-28T21:23:28.992Z,-3.47
2023-01-28T21:31:57.974Z,-3.70
2023-01-28T21:34:31.626Z,-3.94
2023-01-28T21:40:06.534Z,-3.62
2023-01-28T21:43:01.715Z,-3.65
